sensor_id;sensor_type;location;lat;lon;timestamp;temperature;humidity
26479;DHT22;14163;-26.142;27.992;2023-01-15T00:01:22;25.90;96.90
26479;DHT22;14163;-26.142;27.992;2023-01-15T00:03:51;25.80;97.20
26479;DHT22;14163;-26.142;27.992;2023-01-15T00:06:20;25.70;97.50
26479;DHT22;14163;-26.142;27.992;2023-01-15T00:08:49;25.70;97.90
26479;DHT22;14163;-26.142;27.992;2023-01-15T00:11:17;25.70;98.20
26479;DHT22;14163;-26.142;27.992;2023-01-15T00:13:46;25.70;98.70
26479;DHT22;14163;-26.142;27.992;2023-01-15T00:16:16;25.80;99.00
26479;DHT22;14163;-26.142;27.992;2023-01-15T00:18:48;25.90;99.10
26479;DHT22;14163;-26.142;27.992;2023-01-15T00:21:17;26.10;99.20
26479;DHT22;14163;-26.142;27.992;2023-01-15T00:23:46;26.20;99.40
26479;DHT22;14163;-26.142;27.992;2023-01-15T00:26:31;26.30;99.60
26479;DHT22;14163;-26.142;27.992;2023-01-15T00:29:16;26.20;99.90
26479;DHT22;14163;-26.142;27.992;2023-01-15T00:31:50;26.20;99.90
26479;DHT22;14163;-26.142;27.992;2023-01-15T00:34:20;26.00;99.90
26479;DHT22;14163;-26.142;27.992;2023-01-15T00:36:48;25.90;99.90
26479;DHT22;14163;-26.142;27.992;2023-01-15T00:39:16;25.90;99.90
26479;DHT22;14163;-26.142;27.992;2023-01-15T00:41:44;25.90;99.90
26479;DHT22;14163;-26.142;27.992;2023-01-15T00:44:13;25.90;99.90
26479;DHT22;14163;-26.142;27.992;2023-01-15T00:46:41;25.70;99.90
26479;DHT22;14163;-26.142;27.992;2023-01-15T00:49:11;25.80;99.90
26479;DHT22;14163;-26.142;27.992;2023-01-15T00:51:40;25.80;99.90
26479;DHT22;14163;-26.142;27.992;2023-01-15T00:54:08;26.10;99.90
26479;DHT22;14163;-26.142;27.992;2023-01-15T00:56:36;26.20;99.90
26479;DHT22;14163;-26.142;27.992;2023-01-15T00:59:05;26.10;99.90
26479;DHT22;14163;-26.142;27.992;2023-01-15T01:01:33;26.10;99.90
26479;DHT22;14163;-26.142;27.992;2023-01-15T01:04:01;26.20;99.90
26479;DHT22;14163;-26.142;27.992;2023-01-15T01:06:31;26.10;99.90
26479;DHT22;14163;-26.142;27.992;2023-01-15T01:08:59;26.10;99.90
26479;DHT22;14163;-26.142;27.992;2023-01-15T01:11:28;26.10;99.90
26479;DHT22;14163;-26.142;27.992;2023-01-15T01:13:59;25.80;99.90
26479;DHT22;14163;-26.142;27.992;2023-01-15T01:16:28;25.70;99.90
26479;DHT22;14163;-26.142;27.992;2023-01-15T01:18:58;25.80;99.90
26479;DHT22;14163;-26.142;27.992;2023-01-15T01:21:31;25.90;99.90
26479;DHT22;14163;-26.142;27.992;2023-01-15T01:24:00;26.00;99.90
26479;DHT22;14163;-26.142;27.992;2023-01-15T01:26:29;25.80;99.90
26479;DHT22;14163;-26.142;27.992;2023-01-15T01:28:57;25.80;99.90
26479;DHT22;14163;-26.142;27.992;2023-01-15T01:31:25;25.70;99.90
26479;DHT22;14163;-26.142;27.992;2023-01-15T01:33:54;25.60;99.90
26479;DHT22;14163;-26.142;27.992;2023-01-15T01:36:25;25.60;99.90
26479;DHT22;14163;-26.142;27.992;2023-01-15T01:38:56;25.70;99.90
26479;DHT22;14163;-26.142;27.992;2023-01-15T01:41:24;25.60;99.90
26479;DHT22;14163;-26.142;27.992;2023-01-15T01:43:56;25.60;99.90
26479;DHT22;14163;-26.142;27.992;2023-01-15T01:46:25;25.80;99.90
26479;DHT22;14163;-26.142;27.992;2023-01-15T01:48:54;25.70;99.90
26479;DHT22;14163;-26.142;27.992;2023-01-15T01:51:23;25.50;99.90
26479;DHT22;14163;-26.142;27.992;2023-01-15T01:53:56;25.30;99.90
26479;DHT22;14163;-26.142;27.992;2023-01-15T01:56:25;25.20;99.90
26479;DHT22;14163;-26.142;27.992;2023-01-15T01:58:54;25.20;99.90
26479;DHT22;14163;-26.142;27.992;2023-01-15T02:01:23;25.00;99.90
26479;DHT22;14163;-26.142;27.992;2023-01-15T06:07:51;22.10;99.90
26479;DHT22;14163;-26.142;27.992;2023-01-15T06:10:19;20.70;99.90
26479;DHT22;14163;-26.142;27.992;2023-01-15T06:12:48;21.30;99.90
26479;DHT22;14163;-26.142;27.992;2023-01-15T06:15:17;22.00;99.90
26479;DHT22;14163;-26.142;27.992;2023-01-15T06:17:48;22.70;99.90
26479;DHT22;14163;-26.142;27.992;2023-01-15T06:20:17;23.30;99.90
26479;DHT22;14163;-26.142;27.992;2023-01-15T06:22:45;23.90;99.90
26479;DHT22;14163;-26.142;27.992;2023-01-15T06:25:17;24.00;99.90
26479;DHT22;14163;-26.142;27.992;2023-01-15T06:27:47;24.00;99.90
26479;DHT22;14163;-26.142;27.992;2023-01-15T06:30:15;24.10;99.90
26479;DHT22;14163;-26.142;27.992;2023-01-15T06:32:45;24.40;99.90
26479;DHT22;14163;-26.142;27.992;2023-01-15T06:35:13;24.80;99.90
26479;DHT22;14163;-26.142;27.992;2023-01-15T06:37:41;24.60;99.90
26479;DHT22;14163;-26.142;27.992;2023-01-15T06:40:10;24.70;99.90
26479;DHT22;14163;-26.142;27.992;2023-01-15T06:42:40;24.80;99.90
26479;DHT22;14163;-26.142;27.992;2023-01-15T06:45:25;24.80;99.90
26479;DHT22;14163;-26.142;27.992;2023-01-15T06:48:10;25.20;99.90
26479;DHT22;14163;-26.142;27.992;2023-01-15T06:50:38;25.20;99.90
26479;DHT22;14163;-26.142;27.992;2023-01-15T06:53:06;25.10;99.90
26479;DHT22;14163;-26.142;27.992;2023-01-15T06:55:35;25.30;99.90
26479;DHT22;14163;-26.142;27.992;2023-01-15T06:58:05;25.70;99.90
26479;DHT22;14163;-26.142;27.992;2023-01-15T07:00:33;25.90;99.90
26479;DHT22;14163;-26.142;27.992;2023-01-15T07:03:04;26.10;99.90
26479;DHT22;14163;-26.142;27.992;2023-01-15T07:05:32;25.90;99.90
26479;DHT22;14163;-26.142;27.992;2023-01-15T07:08:00;25.50;99.90
26479;DHT22;14163;-26.142;27.992;2023-01-15T07:10:29;25.30;99.90
26479;DHT22;14163;-26.142;27.992;2023-01-15T07:12:57;25.30;99.90
26479;DHT22;14163;-26.142;27.992;2023-01-15T07:15:27;25.50;99.90
26479;DHT22;14163;-26.142;27.992;2023-01-15T07:17:56;25.70;99.90
26479;DHT22;14163;-26.142;27.992;2023-01-15T07:20:24;25.60;99.90
26479;DHT22;14163;-26.142;27.992;2023-01-15T07:22:52;25.70;99.90
26479;DHT22;14163;-26.142;27.992;2023-01-15T07:25:21;25.70;99.90
26479;DHT22;14163;-26.142;27.992;2023-01-15T07:27:49;25.80;99.90
26479;DHT22;14163;-26.142;27.992;2023-01-15T07:30:18;26.00;99.90
26479;DHT22;14163;-26.142;27.992;2023-01-15T07:32:48;26.10;99.90
26479;DHT22;14163;-26.142;27.992;2023-01-15T07:35:16;26.00;99.90
26479;DHT22;14163;-26.142;27.992;2023-01-15T07:37:44;25.90;99.90
26479;DHT22;14163;-26.142;27.992;2023-01-15T07:40:17;25.80;99.90
26479;DHT22;14163;-26.142;27.992;2023-01-15T07:42:46;25.90;99.90
26479;DHT22;14163;-26.142;27.992;2023-01-15T07:45:31;26.00;99.90
26479;DHT22;14163;-26.142;27.992;2023-01-15T07:48:29;26.00;99.90
26479;DHT22;14163;-26.142;27.992;2023-01-15T07:51:13;26.30;99.90
26479;DHT22;14163;-26.142;27.992;2023-01-15T07:53:42;26.60;99.90
26479;DHT22;14163;-26.142;27.992;2023-01-15T07:56:10;26.90;99.90
26479;DHT22;14163;-26.142;27.992;2023-01-15T07:58:38;27.10;99.90
26479;DHT22;14163;-26.142;27.992;2023-01-15T08:01:07;27.20;99.90
26479;DHT22;14163;-26.142;27.992;2023-01-15T08:03:37;27.30;99.90
26479;DHT22;14163;-26.142;27.992;2023-01-15T08:06:05;27.40;99.90
26479;DHT22;14163;-26.142;27.992;2023-01-15T08:08:34;27.60;99.90
26479;DHT22;14163;-26.142;27.992;2023-01-15T08:11:02;27.50;99.90
26479;DHT22;14163;-26.142;27.992;2023-01-15T08:13:47;27.60;99.90
26479;DHT22;14163;-26.142;27.992;2023-01-15T08:16:34;27.50;99.90
26479;DHT22;14163;-26.142;27.992;2023-01-15T08:19:05;27.30;99.90
26479;DHT22;14163;-26.142;27.992;2023-01-15T08:21:33;27.20;99.90
26479;DHT22;14163;-26.142;27.992;2023-01-15T08:24:02;27.20;99.90
26479;DHT22;14163;-26.142;27.992;2023-01-15T08:26:30;27.20;99.90
26479;DHT22;14163;-26.142;27.992;2023-01-15T08:28:59;27.10;99.90
26479;DHT22;14163;-26.142;27.992;2023-01-15T08:31:34;27.20;99.90
26479;DHT22;14163;-26.142;27.992;2023-01-15T08:34:07;27.20;99.90
26479;DHT22;14163;-26.142;27.992;2023-01-15T08:36:38;27.10;99.90
26479;DHT22;14163;-26.142;27.992;2023-01-15T08:39:07;27.00;99.90
26479;DHT22;14163;-26.142;27.992;2023-01-15T08:41:35;27.10;99.90
26479;DHT22;14163;-26.142;27.992;2023-01-15T08:44:05;27.10;99.90
26479;DHT22;14163;-26.142;27.992;2023-01-15T08:46:41;27.30;99.90
26479;DHT22;14163;-26.142;27.992;2023-01-15T08:49:19;27.40;99.90
26479;DHT22;14163;-26.142;27.992;2023-01-15T08:51:48;27.40;99.90
26479;DHT22;14163;-26.142;27.992;2023-01-15T08:54:17;27.30;99.90
26479;DHT22;14163;-26.142;27.992;2023-01-15T08:56:46;27.20;99.90
26479;DHT22;14163;-26.142;27.992;2023-01-15T08:59:14;27.10;99.90
26479;DHT22;14163;-26.142;27.992;2023-01-15T09:01:43;27.20;99.90
26479;DHT22;14163;-26.142;27.992;2023-01-15T09:04:12;27.10;99.90
26479;DHT22;14163;-26.142;27.992;2023-01-15T09:06:43;27.20;99.90
26479;DHT22;14163;-26.142;27.992;2023-01-15T09:09:12;27.40;99.90
26479;DHT22;14163;-26.142;27.992;2023-01-15T09:11:40;27.60;99.90
26479;DHT22;14163;-26.142;27.992;2023-01-15T09:14:09;27.80;99.90
26479;DHT22;14163;-26.142;27.992;2023-01-15T09:16:39;27.80;99.90
26479;DHT22;14163;-26.142;27.992;2023-01-15T09:19:08;27.90;99.90
26479;DHT22;14163;-26.142;27.992;2023-01-15T09:21:45;28.00;99.90
26479;DHT22;14163;-26.142;27.992;2023-01-15T09:24:16;28.00;99.90
26479;DHT22;14163;-26.142;27.992;2023-01-15T09:26:45;28.00;99.90
26479;DHT22;14163;-26.142;27.992;2023-01-15T09:29:14;27.80;99.90
26479;DHT22;14163;-26.142;27.992;2023-01-15T09:31:42;27.70;99.90
26479;DHT22;14163;-26.142;27.992;2023-01-15T09:34:10;27.90;99.90
26479;DHT22;14163;-26.142;27.992;2023-01-15T09:36:39;27.90;99.90
26479;DHT22;14163;-26.142;27.992;2023-01-15T09:39:09;28.10;99.90
26479;DHT22;14163;-26.142;27.992;2023-01-15T09:41:45;28.00;99.90
26479;DHT22;14163;-26.142;27.992;2023-01-15T09:44:36;28.00;99.90
26479;DHT22;14163;-26.142;27.992;2023-01-15T09:47:07;28.10;99.90
26479;DHT22;14163;-26.142;27.992;2023-01-15T09:52:25;28.20;99.90
26479;DHT22;14163;-26.142;27.992;2023-01-15T09:55:01;28.30;99.90
26479;DHT22;14163;-26.142;27.992;2023-01-15T09:57:31;28.40;99.90
26479;DHT22;14163;-26.142;27.992;2023-01-15T09:59:59;28.30;99.90
26479;DHT22;14163;-26.142;27.992;2023-01-15T14:09:27;29.70;96.00
26479;DHT22;14163;-26.142;27.992;2023-01-15T14:12:02;29.80;95.80
26479;DHT22;14163;-26.142;27.992;2023-01-15T14:14:46;30.00;95.50
26479;DHT22;14163;-26.142;27.992;2023-01-15T14:17:30;30.40;95.00
26479;DHT22;14163;-26.142;27.992;2023-01-15T14:20:15;30.80;94.50
26479;DHT22;14163;-26.142;27.992;2023-01-15T14:22:54;31.10;94.10
26479;DHT22;14163;-26.142;27.992;2023-01-15T14:25:35;31.20;93.70
26479;DHT22;14163;-26.142;27.992;2023-01-15T14:28:20;31.30;93.40
26479;DHT22;14163;-26.142;27.992;2023-01-15T14:31:00;31.50;93.20
26479;DHT22;14163;-26.142;27.992;2023-01-15T14:33:32;31.60;92.90
26479;DHT22;14163;-26.142;27.992;2023-01-15T14:36:09;31.90;93.00
26479;DHT22;14163;-26.142;27.992;2023-01-15T14:38:44;32.00;92.10
26479;DHT22;14163;-26.142;27.992;2023-01-15T14:41:15;32.10;92.00
26479;DHT22;14163;-26.142;27.992;2023-01-15T14:43:47;32.20;91.90
26479;DHT22;14163;-26.142;27.992;2023-01-15T14:46:18;32.20;91.20
26479;DHT22;14163;-26.142;27.992;2023-01-15T14:48:48;31.90;90.90
26479;DHT22;14163;-26.142;27.992;2023-01-15T14:51:17;31.80;91.30
26479;DHT22;14163;-26.142;27.992;2023-01-15T14:53:49;32.00;91.00
26479;DHT22;14163;-26.142;27.992;2023-01-15T14:56:21;31.90;91.30
26479;DHT22;14163;-26.142;27.992;2023-01-15T14:58:52;31.90;90.80
26479;DHT22;14163;-26.142;27.992;2023-01-15T15:04:19;32.00;90.40
26479;DHT22;14163;-26.142;27.992;2023-01-15T15:06:49;32.00;90.60
26479;DHT22;14163;-26.142;27.992;2023-01-15T15:09:23;32.30;90.50
26479;DHT22;14163;-26.142;27.992;2023-01-15T15:11:56;32.40;89.90
26479;DHT22;14163;-26.142;27.992;2023-01-15T15:14:42;32.30;89.30
26479;DHT22;14163;-26.142;27.992;2023-01-15T15:17:17;32.00;89.00
26479;DHT22;14163;-26.142;27.992;2023-01-15T15:19:47;31.80;88.90
26479;DHT22;14163;-26.142;27.992;2023-01-15T15:22:18;31.70;89.50
26479;DHT22;14163;-26.142;27.992;2023-01-15T15:24:47;31.90;90.10
26479;DHT22;14163;-26.142;27.992;2023-01-15T15:27:19;32.20;90.00
26479;DHT22;14163;-26.142;27.992;2023-01-15T15:29:48;32.50;86.90
26479;DHT22;14163;-26.142;27.992;2023-01-15T15:32:17;32.60;85.50
26479;DHT22;14163;-26.142;27.992;2023-01-15T15:34:47;32.60;84.90
26479;DHT22;14163;-26.142;27.992;2023-01-15T15:37:17;32.80;85.20
26479;DHT22;14163;-26.142;27.992;2023-01-15T15:39:48;32.80;83.20
26479;DHT22;14163;-26.142;27.992;2023-01-15T15:42:21;32.80;83.90
26479;DHT22;14163;-26.142;27.992;2023-01-15T15:45:11;32.60;84.40
26479;DHT22;14163;-26.142;27.992;2023-01-15T15:47:58;32.50;85.20
26479;DHT22;14163;-26.142;27.992;2023-01-15T15:50:52;32.40;84.00
26479;DHT22;14163;-26.142;27.992;2023-01-15T15:53:21;32.20;83.40
26479;DHT22;14163;-26.142;27.992;2023-01-15T15:55:49;32.00;84.70
26479;DHT22;14163;-26.142;27.992;2023-01-15T15:58:21;32.10;85.20
26479;DHT22;14163;-26.142;27.992;2023-01-15T16:00:50;32.10;83.40
26479;DHT22;14163;-26.142;27.992;2023-01-15T16:03:21;32.20;84.40
26479;DHT22;14163;-26.142;27.992;2023-01-15T16:05:56;32.20;84.10
26479;DHT22;14163;-26.142;27.992;2023-01-15T16:08:25;32.20;83.90
26479;DHT22;14163;-26.142;27.992;2023-01-15T16:10:54;32.20;83.00
26479;DHT22;14163;-26.142;27.992;2023-01-15T16:13:26;32.00;82.80
26479;DHT22;14163;-26.142;27.992;2023-01-15T16:15:56;31.90;84.00
26479;DHT22;14163;-26.142;27.992;2023-01-15T16:18:25;32.00;83.20
26479;DHT22;14163;-26.142;27.992;2023-01-15T16:20:55;31.90;82.40
26479;DHT22;14163;-26.142;27.992;2023-01-15T16:23:24;31.80;82.60
26479;DHT22;14163;-26.142;27.992;2023-01-15T16:25:57;31.50;82.70
26479;DHT22;14163;-26.142;27.992;2023-01-15T16:28:28;31.40;83.10
26479;DHT22;14163;-26.142;27.992;2023-01-15T16:31:00;31.30;83.50
26479;DHT22;14163;-26.142;27.992;2023-01-15T16:33:29;31.30;83.60
26479;DHT22;14163;-26.142;27.992;2023-01-15T16:35:58;31.30;83.60
26479;DHT22;14163;-26.142;27.992;2023-01-15T16:38:29;31.40;82.40
26479;DHT22;14163;-26.142;27.992;2023-01-15T16:40:58;31.40;82.50
26479;DHT22;14163;-26.142;27.992;2023-01-15T16:43:28;31.50;82.30
26479;DHT22;14163;-26.142;27.992;2023-01-15T16:45:58;31.50;82.90
26479;DHT22;14163;-26.142;27.992;2023-01-15T16:48:28;31.50;82.50
26479;DHT22;14163;-26.142;27.992;2023-01-15T16:53:44;31.40;82.70
26479;DHT22;14163;-26.142;27.992;2023-01-15T16:56:23;31.40;83.00
26479;DHT22;14163;-26.142;27.992;2023-01-15T16:58:55;31.40;83.00
26479;DHT22;14163;-26.142;27.992;2023-01-15T17:01:24;31.30;84.00
26479;DHT22;14163;-26.142;27.992;2023-01-15T17:03:53;31.40;84.10
26479;DHT22;14163;-26.142;27.992;2023-01-15T17:06:23;31.30;84.90
26479;DHT22;14163;-26.142;27.992;2023-01-15T17:08:54;31.20;85.70
26479;DHT22;14163;-26.142;27.992;2023-01-15T17:11:24;31.10;85.90
26479;DHT22;14163;-26.142;27.992;2023-01-15T17:14:08;31.10;86.50
26479;DHT22;14163;-26.142;27.992;2023-01-15T17:16:36;30.90;86.30
26479;DHT22;14163;-26.142;27.992;2023-01-15T17:19:05;30.80;86.90
26479;DHT22;14163;-26.142;27.992;2023-01-15T17:21:34;30.70;87.20
26479;DHT22;14163;-26.142;27.992;2023-01-15T17:24:04;30.70;87.40
26479;DHT22;14163;-26.142;27.992;2023-01-15T17:26:33;30.60;87.60
26479;DHT22;14163;-26.142;27.992;2023-01-15T17:29:01;30.60;87.60
26479;DHT22;14163;-26.142;27.992;2023-01-15T17:31:31;30.40;87.70
26479;DHT22;14163;-26.142;27.992;2023-01-15T17:34:01;30.20;88.10
26479;DHT22;14163;-26.142;27.992;2023-01-15T17:36:30;30.00;88.60
26479;DHT22;14163;-26.142;27.992;2023-01-15T17:38:59;30.00;89.00
26479;DHT22;14163;-26.142;27.992;2023-01-15T17:41:27;29.90;89.00
26479;DHT22;14163;-26.142;27.992;2023-01-15T17:43:56;29.80;89.40
26479;DHT22;14163;-26.142;27.992;2023-01-15T17:46:24;29.80;89.80
26479;DHT22;14163;-26.142;27.992;2023-01-15T17:48:55;29.80;89.90
26479;DHT22;14163;-26.142;27.992;2023-01-15T17:51:23;29.70;90.10
26479;DHT22;14163;-26.142;27.992;2023-01-15T17:53:54;29.60;90.50
26479;DHT22;14163;-26.142;27.992;2023-01-15T17:56:23;29.80;90.40
26479;DHT22;14163;-26.142;27.992;2023-01-15T17:59:08;29.80;90.50
26479;DHT22;14163;-26.142;27.992;2023-01-15T18:01:54;29.90;90.50
26479;DHT22;14163;-26.142;27.992;2023-01-15T19:05:35;25.90;98.20
26479;DHT22;14163;-26.142;27.992;2023-01-15T19:08:04;25.90;98.70
26479;DHT22;14163;-26.142;27.992;2023-01-15T19:10:33;26.40;98.40
26479;DHT22;14163;-26.142;27.992;2023-01-15T19:13:01;27.00;98.40
26479;DHT22;14163;-26.142;27.992;2023-01-15T19:15:30;27.70;97.50
26479;DHT22;14163;-26.142;27.992;2023-01-15T19:18:15;28.20;97.00
26479;DHT22;14163;-26.142;27.992;2023-01-15T19:21:06;28.80;96.00
26479;DHT22;14163;-26.142;27.992;2023-01-15T19:23:35;29.20;95.20
26479;DHT22;14163;-26.142;27.992;2023-01-15T19:26:03;29.50;95.20
26479;DHT22;14163;-26.142;27.992;2023-01-15T19:28:31;29.60;94.90
26479;DHT22;14163;-26.142;27.992;2023-01-15T19:31:00;29.80;94.80
26479;DHT22;14163;-26.142;27.992;2023-01-15T19:33:44;29.90;94.60
26479;DHT22;14163;-26.142;27.992;2023-01-15T19:36:14;30.10;94.50
26479;DHT22;14163;-26.142;27.992;2023-01-15T19:38:43;30.00;93.80
26479;DHT22;14163;-26.142;27.992;2023-01-15T19:41:11;29.70;94.20
26479;DHT22;14163;-26.142;27.992;2023-01-15T19:43:56;29.50;94.40
26479;DHT22;14163;-26.142;27.992;2023-01-15T19:46:41;29.50;94.70
26479;DHT22;14163;-26.142;27.992;2023-01-15T19:49:27;29.50;94.40
26479;DHT22;14163;-26.142;27.992;2023-01-15T19:52:14;29.40;95.00
26479;DHT22;14163;-26.142;27.992;2023-01-15T19:55:01;29.20;94.70
26479;DHT22;14163;-26.142;27.992;2023-01-15T19:57:29;29.40;96.50
26479;DHT22;14163;-26.142;27.992;2023-01-15T19:59:57;29.70;97.00
26479;DHT22;14163;-26.142;27.992;2023-01-15T20:02:26;29.80;97.80
26479;DHT22;14163;-26.142;27.992;2023-01-15T20:06:47;30.00;97.40
26479;DHT22;14163;-26.142;27.992;2023-01-15T20:09:16;30.10;98.10
26479;DHT22;14163;-26.142;27.992;2023-01-15T20:11:44;30.10;98.00
26479;DHT22;14163;-26.142;27.992;2023-01-15T20:14:28;30.00;97.90
26479;DHT22;14163;-26.142;27.992;2023-01-15T20:16:56;30.00;97.60
26479;DHT22;14163;-26.142;27.992;2023-01-15T20:19:24;30.00;97.50
26479;DHT22;14163;-26.142;27.992;2023-01-15T20:21:54;30.00;97.90
26479;DHT22;14163;-26.142;27.992;2023-01-15T20:24:23;30.00;98.20
26479;DHT22;14163;-26.142;27.992;2023-01-15T20:26:51;30.00;98.40
26479;DHT22;14163;-26.142;27.992;2023-01-15T20:29:20;29.90;97.80
26479;DHT22;14163;-26.142;27.992;2023-01-15T20:31:48;29.90;98.30
26479;DHT22;14163;-26.142;27.992;2023-01-15T20:34:16;29.90;98.50
26479;DHT22;14163;-26.142;27.992;2023-01-15T20:36:45;29.80;98.70
26479;DHT22;14163;-26.142;27.992;2023-01-15T20:39:15;29.80;98.70
26479;DHT22;14163;-26.142;27.992;2023-01-15T20:41:43;29.80;98.90
26479;DHT22;14163;-26.142;27.992;2023-01-15T20:44:28;29.80;99.00
26479;DHT22;14163;-26.142;27.992;2023-01-15T20:47:13;29.80;99.30
26479;DHT22;14163;-26.142;27.992;2023-01-15T20:49:54;29.60;99.40
26479;DHT22;14163;-26.142;27.992;2023-01-15T20:52:22;29.60;99.50
26479;DHT22;14163;-26.142;27.992;2023-01-15T20:54:53;29.60;99.00
26479;DHT22;14163;-26.142;27.992;2023-01-15T20:57:21;29.50;98.20
26479;DHT22;14163;-26.142;27.992;2023-01-15T20:59:50;29.50;98.50
26479;DHT22;14163;-26.142;27.992;2023-01-15T21:02:18;29.50;98.90
26479;DHT22;14163;-26.142;27.992;2023-01-15T21:04:46;29.50;99.40
26479;DHT22;14163;-26.142;27.992;2023-01-15T21:07:15;29.60;99.60
26479;DHT22;14163;-26.142;27.992;2023-01-15T21:09:43;29.50;99.80
26479;DHT22;14163;-26.142;27.992;2023-01-15T21:12:14;29.40;99.90
26479;DHT22;14163;-26.142;27.992;2023-01-15T21:14:42;29.40;99.90
26479;DHT22;14163;-26.142;27.992;2023-01-15T21:17:11;29.40;99.90
26479;DHT22;14163;-26.142;27.992;2023-01-15T21:19:39;29.20;99.60
26479;DHT22;14163;-26.142;27.992;2023-01-15T21:22:07;28.90;99.10
26479;DHT22;14163;-26.142;27.992;2023-01-15T21:24:36;28.80;99.50
26479;DHT22;14163;-26.142;27.992;2023-01-15T21:27:04;29.00;99.60
26479;DHT22;14163;-26.142;27.992;2023-01-15T21:29:34;29.10;99.20
26479;DHT22;14163;-26.142;27.992;2023-01-15T21:32:02;29.00;99.10
26479;DHT22;14163;-26.142;27.992;2023-01-15T21:34:31;29.00;99.50
26479;DHT22;14163;-26.142;27.992;2023-01-15T21:36:59;29.00;99.80
26479;DHT22;14163;-26.142;27.992;2023-01-15T21:39:27;29.10;99.80
26479;DHT22;14163;-26.142;27.992;2023-01-15T21:41:56;29.00;99.80
26479;DHT22;14163;-26.142;27.992;2023-01-15T21:44:42;29.00;99.90
26479;DHT22;14163;-26.142;27.992;2023-01-15T21:47:11;29.00;99.90
26479;DHT22;14163;-26.142;27.992;2023-01-15T21:49:40;29.10;99.90
26479;DHT22;14163;-26.142;27.992;2023-01-15T21:52:10;29.30;99.90
26479;DHT22;14163;-26.142;27.992;2023-01-15T21:54:39;29.40;99.90
26479;DHT22;14163;-26.142;27.992;2023-01-15T21:57:08;29.40;99.90
26479;DHT22;14163;-26.142;27.992;2023-01-15T21:59:36;29.30;99.90
26479;DHT22;14163;-26.142;27.992;2023-01-15T22:02:09;29.30;99.90
26479;DHT22;14163;-26.142;27.992;2023-01-15T22:04:40;29.20;99.90
26479;DHT22;14163;-26.142;27.992;2023-01-15T22:07:08;28.90;99.90
26479;DHT22;14163;-26.142;27.992;2023-01-15T22:09:36;28.60;99.90
26479;DHT22;14163;-26.142;27.992;2023-01-15T22:12:05;28.30;99.90
26479;DHT22;14163;-26.142;27.992;2023-01-15T22:14:33;28.30;99.90
26479;DHT22;14163;-26.142;27.992;2023-01-15T22:17:02;28.60;99.90
26479;DHT22;14163;-26.142;27.992;2023-01-15T22:19:32;28.80;99.90
26479;DHT22;14163;-26.142;27.992;2023-01-15T22:22:01;28.80;99.90
26479;DHT22;14163;-26.142;27.992;2023-01-15T22:24:30;28.90;99.90
26479;DHT22;14163;-26.142;27.992;2023-01-15T22:27:00;28.90;99.90
26479;DHT22;14163;-26.142;27.992;2023-01-15T22:29:29;28.90;99.90
26479;DHT22;14163;-26.142;27.992;2023-01-15T22:31:57;28.80;99.90
26479;DHT22;14163;-26.142;27.992;2023-01-15T22:34:27;28.90;99.90
26479;DHT22;14163;-26.142;27.992;2023-01-15T22:36:57;28.80;99.90
26479;DHT22;14163;-26.142;27.992;2023-01-15T22:39:26;28.80;99.90
26479;DHT22;14163;-26.142;27.992;2023-01-15T22:41:54;28.80;99.90
26479;DHT22;14163;-26.142;27.992;2023-01-15T22:44:39;28.70;99.90
26479;DHT22;14163;-26.142;27.992;2023-01-15T22:47:11;28.70;99.90
26479;DHT22;14163;-26.142;27.992;2023-01-15T22:49:40;28.60;99.90
26479;DHT22;14163;-26.142;27.992;2023-01-15T22:52:10;28.50;99.90
26479;DHT22;14163;-26.142;27.992;2023-01-15T22:54:38;28.50;99.90
26479;DHT22;14163;-26.142;27.992;2023-01-15T22:57:09;28.40;99.90
26479;DHT22;14163;-26.142;27.992;2023-01-15T22:59:38;28.30;99.90
26479;DHT22;14163;-26.142;27.992;2023-01-15T23:02:06;28.30;99.90
26479;DHT22;14163;-26.142;27.992;2023-01-15T23:04:35;28.10;99.90
26479;DHT22;14163;-26.142;27.992;2023-01-15T23:07:03;28.00;99.90
26479;DHT22;14163;-26.142;27.992;2023-01-15T23:09:33;27.80;99.90
26479;DHT22;14163;-26.142;27.992;2023-01-15T23:12:02;27.70;99.90
26479;DHT22;14163;-26.142;27.992;2023-01-15T23:14:30;27.50;99.90
26479;DHT22;14163;-26.142;27.992;2023-01-15T23:16:58;27.20;99.90
26479;DHT22;14163;-26.142;27.992;2023-01-15T23:19:27;27.30;99.90
26479;DHT22;14163;-26.142;27.992;2023-01-15T23:21:55;27.10;99.90
26479;DHT22;14163;-26.142;27.992;2023-01-15T23:24:25;27.00;99.90
26479;DHT22;14163;-26.142;27.992;2023-01-15T23:26:55;26.90;99.90
26479;DHT22;14163;-26.142;27.992;2023-01-15T23:29:23;26.80;99.90
26479;DHT22;14163;-26.142;27.992;2023-01-15T23:31:52;26.50;99.90
26479;DHT22;14163;-26.142;27.992;2023-01-15T23:34:20;26.30;99.90
26479;DHT22;14163;-26.142;27.992;2023-01-15T23:36:49;26.20;99.90
26479;DHT22;14163;-26.142;27.992;2023-01-15T23:39:17;26.10;99.90
26479;DHT22;14163;-26.142;27.992;2023-01-15T23:41:45;26.00;99.90
26479;DHT22;14163;-26.142;27.992;2023-01-15T23:44:34;26.00;99.90
26479;DHT22;14163;-26.142;27.992;2023-01-15T23:47:19;25.90;99.90
26479;DHT22;14163;-26.142;27.992;2023-01-15T23:49:47;26.10;99.90
26479;DHT22;14163;-26.142;27.992;2023-01-15T23:52:16;26.30;99.90
26479;DHT22;14163;-26.142;27.992;2023-01-15T23:54:44;26.40;99.90
26479;DHT22;14163;-26.142;27.992;2023-01-15T23:57:12;26.40;99.90
26479;DHT22;14163;-26.142;27.992;2023-01-15T23:59:42;26.50;99.90
